Terminal Aerodrome Forecast
Issued by NWS

Home | Current Version | Previous Version | Text Only | Print | Product List | Glossary On
Versions: 1 2 3 4 5 6 7 8 9 10 11 12 13 14 15
111
FTUS45 KABQ 251733
TAFSAF
TAF
KSAF 251733Z 2518/2618 18008KT P6SM SCT080 SCT150
     FM252200 14012KT P6SM VCTS BKN080CB BKN130
      TEMPO 2522/2602 VRB18G28KT
     FM260200 12010KT P6SM VCSH BKN080 OVC100
     FM260600 02008KT P6SM BKN120
     FM261500 32006KT P6SM SCT150=

USA.gov is the U.S. government's official web portal to all federal, state and local government web resources and services.